메인 페이지
METAR-TAF:

METAR-TAF

공항 :

Hutchinson, 캔자스, 미국

위도: 38-04-05N, 경도: 097-51-38W, 고도: 470m

현재 날씨관측

예보는 1 시간 8분 전, 03:52시(UTC)에 발표되었습니다.
남남동3kt
온도 12°C
습도 82%
기압 1010 hPa
시정: 16.1km
맑음

METAR: KHUT 250352Z AUTO 15003KT 10SM CLR 12/09 A2982 RMK AO2 SLP087 T01220094

시각: 00:00 (05:00 UTC)

예보

예보는 5 시간 38분 전, 23:22시(UTC)에 발표되었습니다.
예보 대상 시간: 25일 00시부터 25일 24시까지 (UTC)
여러 방향의 바람 3kt
시정: 10km
맑음
일시적
25일 08시부터 25일 12시까지 (UTC)
시정: 6.4km
박무
25일 1400시부터 (UTC)
북북서11kt
시정: 10km
고도 8000ft 상공 구름 보통
25일 1700시부터 (UTC)
20kt, 순간 최대 풍속 29kt
시정: 10km
고도 4000ft 상공 구름 많음

TAF: KHUT 242322Z 2500/2524 VRB03KT P6SM SKC TEMPO 2508/2512 4SM BR FM251400 34011KT P6SM SCT080 FM251700 35020G29KT P6SM BKN040

4,000개 이상의 공항 관측 자료 및 예보 (METAR 및 TAF 보고).

지도상에서 검색 가능한 기상관측소가 노란 점과 빨간 점으로 표시되어 있습니다.

기상관측소 명을 보려면 표시 위로 마우스를 이동하세요.

날씨 관측과 예보를 보려면 클릭하세요.

지도 변경 : 확대하려면 엑스 표시가 있는 녹색 버튼, 축소하려면 빼기 표시가 있는 녹색 버튼, 다음 페이지의 지도를 보려면 녹색 화살표를 클릭하세요.


METAR-TAF: